Time;durP1;ratioP1;P1;durP2;ratioP2;P2;SDS_P1;SDS_P2;PMS_P1;PMS_P2;Temp;Humidity;BMP_temperature;BMP_pressure;BME280_temperature;BME280_humidity;BME280_pressure;Samples;Min_cycle;Max_cycle;Signal;HPM_P1;HPM_P2
2022/04/20 00:02:23;;;;;;;3.85;2.92;;;6.40;44.50;;;;;;5031744;28;20187;-62
2022/04/20 00:04:53;;;;;;;4.70;3.40;;;6.30;44.90;;;;;;5031772;28;20194;-62
2022/04/20 00:07:22;;;;;;;3.85;2.70;;;6.20;44.70;;;;;;5031754;28;20386;-64
2022/04/20 00:09:49;;;;;;;5.45;4.32;;;6.10;44.80;;;;;;5032135;28;20554;-62
2022/04/20 00:12:17;;;;;;;3.88;3.35;;;6.10;45.20;;;;;;5032312;28;20279;-62
2022/04/20 00:14:44;;;;;;;4.13;3.08;;;6.00;45.10;;;;;;5031832;28;20246;-62
2022/04/20 00:17:11;;;;;;;5.10;2.90;;;5.90;45.10;;;;;;5031715;28;20187;-63
2022/04/20 00:19:38;;;;;;;3.50;2.85;;;5.90;45.00;;;;;;5031916;28;20198;-62
2022/04/20 00:22:06;;;;;;;3.83;2.75;;;5.70;45.40;;;;;;5031498;28;20272;-62
2022/04/20 00:24:35;;;;;;;4.40;3.13;;;5.60;46.00;;;;;;5031802;28;20198;-62
2022/04/20 00:27:02;;;;;;;5.97;3.58;;;5.60;46.20;;;;;;5031660;28;20190;-62
2022/04/20 00:29:29;;;;;;;5.07;3.38;;;5.60;46.40;;;;;;5031798;28;20199;-62
2022/04/20 00:31:57;;;;;;;5.43;3.70;;;5.60;46.50;;;;;;5031446;28;20219;-62
2022/04/20 00:34:24;;;;;;;6.43;4.40;;;5.60;46.40;;;;;;5031827;28;20253;-62
2022/04/20 00:36:55;;;;;;;3.33;2.70;;;5.50;46.20;;;;;;5031643;28;20218;-62
2022/04/20 00:39:22;;;;;;;5.82;3.20;;;5.50;47.20;;;;;;5034425;28;20195;-63
2022/04/20 00:41:53;;;;;;;4.97;3.30;;;5.40;46.60;;;;;;5035101;28;20247;-63
2022/04/20 00:44:21;;;;;;;3.38;2.80;;;5.40;46.80;;;;;;5035448;28;20661;-62
2022/04/20 00:46:50;;;;;;;3.80;2.40;;;5.30;46.80;;;;;;5035215;28;20183;-62
2022/04/20 00:49:18;;;;;;;5.30;2.53;;;5.30;47.30;;;;;;5035678;28;20249;-63
2022/04/20 00:51:53;;;;;;;5.78;3.20;;;5.20;47.50;;;;;;5034908;28;20289;-62
2022/04/20 00:54:20;;;;;;;3.83;2.78;;;5.20;47.80;;;;;;5035248;28;20259;-62
2022/04/20 00:56:47;;;;;;;3.60;2.60;;;5.00;48.10;;;;;;5034932;28;20215;-62
2022/04/20 00:59:18;;;;;;;3.95;2.65;;;5.10;48.30;;;;;;5034986;28;20675;-62
2022/04/20 01:01:46;;;;;;;4.68;3.00;;;5.00;47.90;;;;;;5035177;28;20218;-63
2022/04/20 01:04:13;;;;;;;4.60;3.38;;;5.00;48.20;;;;;;5035077;28;20191;-63
2022/04/20 01:06:40;;;;;;;4.38;2.95;;;5.00;47.60;;;;;;5034950;28;20187;-63
2022/04/20 01:09:08;;;;;;;3.72;3.03;;;4.90;47.70;;;;;;5034894;28;20206;-62
2022/04/20 01:11:35;;;;;;;5.00;3.15;;;4.80;48.00;;;;;;5035124;28;20187;-62
2022/04/20 01:14:02;;;;;;;3.97;2.90;;;4.80;48.30;;;;;;5034422;28;20191;-62
2022/04/20 01:16:31;;;;;;;4.68;2.83;;;4.80;48.50;;;;;;5034876;28;20309;-62
2022/04/20 01:18:58;;;;;;;3.83;2.78;;;4.80;48.90;;;;;;5034386;28;20202;-63
2022/04/20 01:21:27;;;;;;;4.45;3.10;;;4.80;48.90;;;;;;5034657;28;20199;-62
2022/04/20 01:23:54;;;;;;;3.80;2.35;;;4.80;48.80;;;;;;5033990;28;20194;-62
2022/04/20 01:26:22;;;;;;;4.22;3.45;;;4.70;47.80;;;;;;5034711;28;20195;-62
2022/04/20 01:28:49;;;;;;;6.15;3.03;;;4.60;48.00;;;;;;5034194;28;20278;-62
2022/04/20 01:31:18;;;;;;;4.60;2.58;;;4.60;48.70;;;;;;5034552;28;20266;-62
2022/04/20 01:33:46;;;;;;;3.17;2.65;;;4.50;48.30;;;;;;5034209;28;20278;-62
2022/04/20 01:36:13;;;;;;;4.00;2.53;;;4.40;48.50;;;;;;5034521;28;20222;-62
2022/04/20 01:38:42;;;;;;;4.85;3.65;;;4.30;49.00;;;;;;5034218;28;20340;-62
2022/04/20 01:41:09;;;;;;;7.07;3.10;;;4.30;49.20;;;;;;5034251;28;20215;-62
2022/04/20 01:43:36;;;;;;;5.80;2.85;;;4.30;49.30;;;;;;5033901;28;20201;-62
2022/04/20 01:46:03;;;;;;;3.97;2.50;;;4.20;49.30;;;;;;5034069;28;20198;-64
2022/04/20 01:48:30;;;;;;;6.95;3.92;;;4.20;49.30;;;;;;5034564;28;20226;-62
2022/04/20 01:53:43;;;;;;;5.28;3.40;;;4.20;49.60;;;;;;5030701;28;20186;-63
2022/04/20 01:56:11;;;;;;;6.07;3.15;;;4.20;49.60;;;;;;5033829;28;20219;-63
2022/04/20 01:58:38;;;;;;;6.22;3.38;;;4.10;49.30;;;;;;5034369;28;20195;-62
2022/04/20 02:02:34;;;;;;;3.42;2.90;;;4.00;49.40;;;;;;5033909;28;20191;-62
2022/04/20 02:03:51;;;;;;;5.00;4.00;;;4.00;49.50;;;;;;5033432;28;20199;-62
2022/04/20 02:06:19;;;;;;;6.03;2.92;;;3.90;49.70;;;;;;5034054;28;20646;-62
2022/04/20 02:08:47;;;;;;;4.07;2.47;;;3.80;50.60;;;;;;5033793;28;20604;-62
2022/04/20 02:11:14;;;;;;;5.75;3.40;;;3.70;50.80;;;;;;5033546;28;20278;-62
2022/04/20 02:13:42;;;;;;;4.82;2.90;;;3.70;50.90;;;;;;5033900;28;20549;-63
2022/04/20 02:16:09;;;;;;;3.95;3.05;;;3.70;51.00;;;;;;5033401;28;20215;-62
2022/04/20 02:18:36;;;;;;;6.70;2.80;;;3.70;51.10;;;;;;5033580;28;20658;-62
2022/04/20 02:21:03;;;;;;;3.80;2.65;;;3.70;51.30;;;;;;5033079;28;20199;-62
2022/04/20 02:23:30;;;;;;;4.53;2.90;;;3.60;51.20;;;;;;5033289;28;20198;-62
2022/04/20 02:25:58;;;;;;;3.63;3.15;;;3.60;51.20;;;;;;5033134;28;20223;-62
2022/04/20 02:28:26;;;;;;;4.68;2.95;;;3.50;51.20;;;;;;5033062;28;20556;-62
2022/04/20 02:30:53;;;;;;;5.82;3.45;;;3.50;51.40;;;;;;5033089;28;20183;-61
2022/04/20 02:33:21;;;;;;;4.88;3.70;;;3.50;52.00;;;;;;5033315;28;20191;-62
2022/04/20 02:35:48;;;;;;;4.97;3.17;;;3.40;52.40;;;;;;5032809;28;20214;-62
2022/04/20 02:38:17;;;;;;;6.72;2.83;;;3.40;52.80;;;;;;5033220;28;20199;-62
2022/04/20 02:40:45;;;;;;;4.93;3.22;;;3.30;52.90;;;;;;5032784;28;20195;-62
2022/04/20 02:43:14;;;;;;;6.05;3.70;;;3.20;52.90;;;;;;5033266;28;20210;-63
2022/04/20 02:45:42;;;;;;;4.05;3.10;;;3.20;53.20;;;;;;5032683;28;20191;-61
2022/04/20 02:48:10;;;;;;;5.20;3.33;;;3.20;53.60;;;;;;5032851;28;20191;-62
2022/04/20 02:50:38;;;;;;;4.90;3.60;;;3.20;53.70;;;;;;5032403;28;20274;-62
2022/04/20 02:53:05;;;;;;;3.70;2.80;;;3.20;53.50;;;;;;5032490;28;20211;-61
2022/04/20 02:55:32;;;;;;;6.65;2.85;;;3.20;53.30;;;;;;5032801;28;20286;-62
2022/04/20 02:57:59;;;;;;;6.97;2.63;;;3.10;53.60;;;;;;5032475;28;20191;-61
2022/04/20 03:00:28;;;;;;;5.13;2.70;;;3.10;54.10;;;;;;5032687;28;20230;-61
2022/04/20 03:02:55;;;;;;;6.00;2.45;;;3.10;54.00;;;;;;5032385;28;20218;-62
2022/04/20 03:05:22;;;;;;;5.93;2.90;;;3.10;53.70;;;;;;5032907;28;20190;-62
2022/04/20 03:07:49;;;;;;;4.35;3.40;;;3.10;53.70;;;;;;5032491;28;20236;-66
2022/04/20 03:10:16;;;;;;;5.50;3.60;;;3.10;53.80;;;;;;5032179;28;20286;-62
2022/04/20 03:12:44;;;;;;;4.25;3.38;;;3.10;54.60;;;;;;5032621;28;20203;-62
2022/04/20 03:15:11;;;;;;;3.55;2.80;;;3.10;54.70;;;;;;5032465;28;20195;-61
2022/04/20 03:17:41;;;;;;;5.07;2.65;;;3.10;54.90;;;;;;5032372;28;20308;-62
2022/04/20 03:20:09;;;;;;;4.28;3.33;;;3.10;54.60;;;;;;5032573;28;20293;-62
2022/04/20 03:22:36;;;;;;;5.53;3.65;;;3.00;53.70;;;;;;5032544;28;20237;-62
2022/04/20 03:25:04;;;;;;;4.88;3.22;;;3.00;54.20;;;;;;5032559;28;20642;-62
2022/04/20 03:27:31;;;;;;;4.63;3.13;;;3.10;54.40;;;;;;5032089;28;20245;-62
2022/04/20 03:29:58;;;;;;;4.18;3.00;;;3.00;53.90;;;;;;5032694;28;20357;-62
2022/04/20 03:32:26;;;;;;;3.85;2.85;;;2.80;54.30;;;;;;5032254;28;20227;-61
2022/04/20 03:34:55;;;;;;;4.55;3.50;;;2.90;55.30;;;;;;5032343;28;20191;-62
2022/04/20 03:37:22;;;;;;;4.22;3.00;;;2.80;54.00;;;;;;5032273;28;20564;-61
2022/04/20 03:39:50;;;;;;;3.88;3.13;;;2.80;54.10;;;;;;5031882;28;20199;-61
2022/04/20 03:42:18;;;;;;;5.15;3.10;;;2.80;54.40;;;;;;5032130;28;20219;-63
2022/04/20 03:44:45;;;;;;;3.95;2.72;;;2.80;54.30;;;;;;5031740;28;20195;-62
2022/04/20 03:47:12;;;;;;;3.83;3.17;;;2.80;53.90;;;;;;5032047;28;20649;-62
2022/04/20 03:49:39;;;;;;;6.50;4.03;;;2.70;53.30;;;;;;5031594;28;20194;-62
2022/04/20 03:52:09;;;;;;;3.50;2.85;;;2.70;54.00;;;;;;5032204;28;20618;-62
2022/04/20 03:54:36;;;;;;;5.47;3.55;;;2.60;54.70;;;;;;5031486;28;20618;-62
2022/04/20 03:57:04;;;;;;;7.72;3.92;;;2.60;54.70;;;;;;5032168;28;20550;-62
2022/04/20 03:59:32;;;;;;;6.70;3.97;;;2.60;54.40;;;;;;5031827;28;20183;-61
2022/04/20 04:01:59;;;;;;;6.15;3.50;;;2.60;54.90;;;;;;5032158;28;20237;-62
2022/04/20 04:04:27;;;;;;;6.10;3.70;;;2.60;54.90;;;;;;5031825;28;20191;-61
2022/04/20 04:06:54;;;;;;;5.88;3.40;;;2.60;54.60;;;;;;5032123;28;20674;-61
2022/04/20 04:09:23;;;;;;;5.10;3.67;;;2.60;54.10;;;;;;5031717;28;20194;-62
2022/04/20 04:11:51;;;;;;;5.32;2.95;;;2.60;54.00;;;;;;5032027;28;20195;-62
2022/04/20 04:14:18;;;;;;;5.32;3.58;;;2.60;53.70;;;;;;5034993;28;20194;-62
2022/04/20 04:16:46;;;;;;;4.15;3.20;;;2.60;53.70;;;;;;5035467;28;20305;-65
2022/04/20 04:19:13;;;;;;;4.68;3.20;;;2.60;53.90;;;;;;5036274;28;20209;-62
2022/04/20 04:21:40;;;;;;;4.95;2.80;;;2.50;53.80;;;;;;5035603;28;20187;-62
2022/04/20 04:24:08;;;;;;;5.53;3.50;;;2.50;54.00;;;;;;5035818;28;20187;-61
2022/04/20 04:26:37;;;;;;;4.18;2.88;;;2.50;54.20;;;;;;5035745;28;20215;-65
2022/04/20 04:29:04;;;;;;;12.88;3.60;;;2.50;54.40;;;;;;5036066;28;20273;-62
2022/04/20 04:31:31;;;;;;;5.70;3.72;;;2.40;54.60;;;;;;5035580;28;20289;-63
2022/04/20 04:33:59;;;;;;;4.32;3.72;;;2.50;54.70;;;;;;5035897;28;20298;-62
2022/04/20 04:36:26;;;;;;;6.00;3.33;;;2.50;54.40;;;;;;5035003;28;20226;-62
2022/04/20 04:38:54;;;;;;;7.07;3.85;;;2.50;54.50;;;;;;5035702;28;20245;-62
2022/04/20 04:41:21;;;;;;;4.38;3.05;;;2.40;54.40;;;;;;5035257;28;20223;-62
2022/04/20 04:43:50;;;;;;;5.35;4.07;;;2.40;54.50;;;;;;5035576;28;20302;-61
2022/04/20 04:49:01;;;;;;;5.10;2.88;;;2.40;55.00;;;;;;5035681;28;20193;-62
2022/04/20 04:51:28;;;;;;;5.50;3.72;;;2.30;55.10;;;;;;5034856;28;20219;-65
2022/04/20 04:53:55;;;;;;;4.03;2.90;;;2.40;55.50;;;;;;5035519;28;20298;-62
2022/04/20 04:56:22;;;;;;;7.78;4.55;;;2.40;55.50;;;;;;5035249;28;20242;-62
2022/04/20 04:58:51;;;;;;;10.15;4.25;;;2.40;55.80;;;;;;5035559;28;20249;-62
2022/04/20 05:01:18;;;;;;;6.93;4.15;;;2.30;55.20;;;;;;5034842;28;20194;-64
2022/04/20 05:03:45;;;;;;;7.85;4.95;;;2.30;55.50;;;;;;5034999;28;20594;-62
2022/04/20 05:06:13;;;;;;;7.07;4.45;;;2.30;55.30;;;;;;5035479;28;20199;-62
2022/04/20 05:08:40;;;;;;;4.70;4.03;;;2.40;55.50;;;;;;5034679;28;20238;-62
2022/04/20 05:11:07;;;;;;;6.70;3.85;;;2.40;55.60;;;;;;5035363;28;20191;-62
2022/04/20 05:13:34;;;;;;;5.30;4.80;;;2.40;55.80;;;;;;5035093;28;20183;-62
2022/04/20 05:16:03;;;;;;;5.20;3.55;;;2.50;56.10;;;;;;5031584;28;20191;-62
2022/04/20 05:18:30;;;;;;;4.35;3.10;;;2.60;56.20;;;;;;5033696;28;20195;-62
2022/04/20 05:20:57;;;;;;;5.57;3.80;;;2.70;56.60;;;;;;5033201;28;20273;-62
2022/04/20 05:23:24;;;;;;;7.85;4.50;;;2.80;56.90;;;;;;5033207;28;20282;-62
2022/04/20 05:25:51;;;;;;;4.57;3.80;;;2.90;57.10;;;;;;5033512;28;20619;-62
2022/04/20 05:28:18;;;;;;;5.43;4.18;;;3.00;57.10;;;;;;5033689;28;20563;-62
2022/04/20 05:30:45;;;;;;;6.63;4.07;;;3.10;56.90;;;;;;5031432;28;20245;-66
2022/04/20 05:33:14;;;;;;;5.80;4.15;;;3.20;56.90;;;;;;5026112;28;20312;-63
2022/04/20 05:35:41;;;;;;;5.50;3.60;;;3.30;57.10;;;;;;5030591;28;20191;-63
2022/04/20 05:43:37;;;;;;;7.95;4.00;;;3.40;57.10;;;;;;5031448;28;20205;-63
2022/04/20 05:46:05;;;;;;;5.20;4.28;;;3.50;57.50;;;;;;5031769;28;20294;-62
2022/04/20 05:48:34;;;;;;;9.40;4.05;;;3.60;57.60;;;;;;5030826;28;20191;-62
2022/04/20 05:51:01;;;;;;;4.35;3.60;;;3.70;57.70;;;;;;5030995;28;20195;-63
2022/04/20 05:53:29;;;;;;;5.40;3.65;;;3.90;57.70;;;;;;5031369;28;20652;-63
2022/04/20 05:55:56;;;;;;;7.82;3.83;;;4.10;58.10;;;;;;5029000;28;20187;-62
2022/04/20 05:58:23;;;;;;;5.13;4.20;;;4.20;58.40;;;;;;5032822;28;20219;-62
2022/04/20 06:00:50;;;;;;;6.28;4.25;;;4.40;58.20;;;;;;5032316;28;20209;-63
2022/04/20 06:03:17;;;;;;;6.47;4.32;;;4.60;58.20;;;;;;5032763;28;20558;-62
2022/04/20 06:05:45;;;;;;;5.63;4.75;;;4.70;57.90;;;;;;5031506;28;20191;-62
2022/04/20 06:08:12;;;;;;;5.10;4.60;;;4.90;58.00;;;;;;5032016;28;20183;-63
2022/04/20 06:10:39;;;;;;;5.32;4.70;;;5.00;57.90;;;;;;5032118;28;20251;-64
2022/04/20 06:13:06;;;;;;;7.15;4.65;;;5.20;57.90;;;;;;5028675;28;20195;-62
2022/04/20 06:15:33;;;;;;;6.50;4.68;;;5.30;57.90;;;;;;5032566;28;21159;-63
2022/04/20 06:18:00;;;;;;;6.47;4.97;;;5.50;57.60;;;;;;5032767;28;20685;-63
2022/04/20 06:20:27;;;;;;;6.82;5.32;;;5.60;57.60;;;;;;5032346;28;20213;-64
2022/04/20 06:22:55;;;;;;;6.85;5.53;;;5.80;57.50;;;;;;5028389;28;20191;-62
2022/04/20 06:25:22;;;;;;;8.48;6.07;;;5.90;57.40;;;;;;5032396;28;20209;-62
2022/04/20 06:27:49;;;;;;;11.88;6.30;;;6.10;57.50;;;;;;5031459;28;20268;-63
2022/04/20 06:30:17;;;;;;;7.90;5.47;;;6.30;57.40;;;;;;5032266;28;20282;-63
2022/04/20 06:32:44;;;;;;;16.73;7.97;;;6.40;57.10;;;;;;5031607;28;20215;-63
2022/04/20 06:35:11;;;;;;;7.00;6.30;;;6.50;56.60;;;;;;5032104;28;20203;-63
2022/04/20 06:37:37;;;;;;;10.15;6.38;;;6.70;56.50;;;;;;5031864;28;20219;-63
2022/04/20 06:40:07;;;;;;;6.68;5.55;;;6.90;56.10;;;;;;5031933;28;20527;-63
2022/04/20 06:42:34;;;;;;;7.35;6.18;;;7.00;56.00;;;;;;5031984;28;20289;-63
2022/04/20 06:45:01;;;;;;;7.15;6.07;;;7.10;55.70;;;;;;5031807;28;20281;-63
2022/04/20 06:47:29;;;;;;;9.57;7.18;;;7.20;55.30;;;;;;5029878;28;20219;-63
2022/04/20 06:49:56;;;;;;;7.47;6.68;;;7.40;55.30;;;;;;5026778;28;20198;-64
2022/04/20 07:00:39;;;;;;;8.32;6.65;;;8.00;53.60;;;;;;5025116;28;20194;-62
2022/04/20 07:03:07;;;;;;;6.22;5.68;;;8.10;54.30;;;;;;5030872;28;20198;-65
2022/04/20 07:05:35;;;;;;;7.10;6.20;;;8.30;54.10;;;;;;5031423;28;20191;-68
2022/04/20 07:08:03;;;;;;;7.95;6.47;;;8.40;53.10;;;;;;5031490;28;20199;-63
2022/04/20 07:10:32;;;;;;;6.70;6.00;;;8.50;52.70;;;;;;5031309;28;20191;-63
2022/04/20 07:12:59;;;;;;;8.80;6.28;;;8.70;52.90;;;;;;5031081;28;20199;-63
2022/04/20 07:15:26;;;;;;;7.30;6.45;;;8.90;52.90;;;;;;5031312;28;20285;-63
2022/04/20 07:17:53;;;;;;;8.82;6.75;;;9.00;52.40;;;;;;5031605;28;20665;-63
2022/04/20 07:20:20;;;;;;;8.43;6.00;;;9.20;52.70;;;;;;5030831;28;20300;-63
2022/04/20 07:22:49;;;;;;;8.27;7.45;;;9.30;52.50;;;;;;5031006;28;20637;-63
2022/04/20 07:25:18;;;;;;;12.57;8.50;;;9.50;52.20;;;;;;5030992;28;20254;-63
2022/04/20 07:27:48;;;;;;;12.30;10.25;;;9.70;52.30;;;;;;5030869;28;20229;-63
2022/04/20 07:30:16;;;;;;;8.95;6.68;;;10.00;51.30;;;;;;5031195;28;20653;-63
2022/04/20 07:32:43;;;;;;;7.22;6.28;;;10.20;50.40;;;;;;5030686;28;20538;-64
2022/04/20 07:35:10;;;;;;;8.52;6.50;;;10.50;50.70;;;;;;5030800;28;20646;-69
2022/04/20 07:37:38;;;;;;;8.00;6.28;;;10.70;51.90;;;;;;5031031;28;20310;-69
2022/04/20 07:40:06;;;;;;;8.95;5.22;;;11.00;51.40;;;;;;5030944;28;20536;-63
2022/04/20 07:42:33;;;;;;;5.10;4.32;;;11.30;51.00;;;;;;5030549;28;20215;-63
2022/04/20 07:45:02;;;;;;;4.20;3.80;;;11.70;47.40;;;;;;5031121;28;20195;-63
2022/04/20 07:47:29;;;;;;;4.72;4.15;;;12.10;39.10;;;;;;5028902;28;20225;-64
2022/04/20 07:52:42;;;;;;;7.53;4.80;;;12.50;41.50;;;;;;5029503;28;20209;-63
2022/04/20 07:55:10;;;;;;;4.50;3.80;;;12.90;43.20;;;;;;5030264;28;20195;-63
2022/04/20 07:57:37;;;;;;;5.45;4.07;;;13.20;40.60;;;;;;5030939;28;20230;-63
2022/04/20 08:00:08;;;;;;;5.47;4.65;;;13.60;42.90;;;;;;5030505;28;20195;-65
2022/04/20 08:02:35;;;;;;;4.50;4.07;;;14.00;44.10;;;;;;5026999;28;20246;-63
2022/04/20 08:05:02;;;;;;;4.90;4.15;;;14.40;40.10;;;;;;5030518;28;20198;-63
2022/04/20 08:07:29;;;;;;;4.80;3.90;;;14.80;38.10;;;;;;5029180;28;20199;-63
2022/04/20 08:09:56;;;;;;;4.87;4.10;;;15.10;38.20;;;;;;5030269;28;20438;-64
2022/04/20 08:12:24;;;;;;;5.07;4.20;;;15.40;36.50;;;;;;5030202;28;20438;-63
2022/04/20 08:14:51;;;;;;;5.50;3.50;;;15.80;37.60;;;;;;5030770;28;20452;-63
2022/04/20 08:17:20;;;;;;;5.37;4.43;;;16.10;33.90;;;;;;5030532;28;20871;-64
2022/04/20 08:19:47;;;;;;;4.20;3.80;;;16.40;31.40;;;;;;5030361;28;20815;-63
2022/04/20 08:22:14;;;;;;;4.80;3.87;;;16.60;32.60;;;;;;5030374;28;20500;-63
2022/04/20 08:24:43;;;;;;;5.53;4.50;;;16.90;31.30;;;;;;5030095;28;20469;-65
2022/04/20 08:27:10;;;;;;;3.80;3.40;;;17.30;33.20;;;;;;5030219;28;20457;-64
2022/04/20 08:29:37;;;;;;;4.13;3.10;;;17.70;31.40;;;;;;5030354;28;20441;-64
2022/04/20 08:32:05;;;;;;;3.70;3.10;;;18.00;31.80;;;;;;5030138;28;20450;-63
2022/04/20 08:34:33;;;;;;;4.70;3.50;;;18.20;30.00;;;;;;5030463;28;20434;-64
2022/04/20 08:37:00;;;;;;;4.17;2.93;;;18.50;29.90;;;;;;5029566;28;20457;-64
2022/04/20 08:39:27;;;;;;;3.47;2.70;;;18.70;29.40;;;;;;5029755;28;20545;-64
2022/04/20 08:41:55;;;;;;;3.60;2.53;;;18.80;27.50;;;;;;5029843;28;20509;-62
2022/04/20 08:44:27;;;;;;;3.70;3.13;;;19.00;27.60;;;;;;5030489;28;20441;-61
2022/04/20 08:46:56;;;;;;;4.20;3.37;;;19.40;27.70;;;;;;5025817;28;20438;-62
2022/04/20 08:49:23;;;;;;;2.90;2.20;;;19.60;24.90;;;;;;5030473;28;21388;-62
2022/04/20 08:54:37;;;;;;;3.30;2.60;;;19.60;24.60;;;;;;5030511;28;20631;-62
2022/04/20 08:57:18;;;;;;;3.83;2.30;;;19.90;24.70;;;;;;5029604;28;20520;-62
2022/04/20 08:59:46;;;;;;;4.23;3.00;;;20.00;23.80;;;;;;5032587;28;20868;-61
2022/04/20 09:02:14;;;;;;;3.80;2.70;;;19.90;21.70;;;;;;5033572;28;20445;-62
2022/04/20 09:04:41;;;;;;;3.70;2.40;;;20.10;24.00;;;;;;5033673;28;20438;-62
2022/04/20 09:07:11;;;;;;;6.20;3.03;;;20.40;24.40;;;;;;5033011;28;20920;-62
2022/04/20 09:09:39;;;;;;;4.47;2.20;;;20.50;24.50;;;;;;5033499;28;20446;-62
2022/04/20 09:12:10;;;;;;;3.47;2.30;;;20.50;22.90;;;;;;5032797;28;20438;-63
2022/04/20 09:14:40;;;;;;;3.00;2.53;;;20.60;23.30;;;;;;5029894;28;20437;-62
2022/04/20 09:17:10;;;;;;;4.73;2.57;;;20.50;23.30;;;;;;5033847;28;21043;-61
2022/04/20 09:19:38;;;;;;;3.40;2.10;;;20.70;24.60;;;;;;5032669;28;20484;-63
2022/04/20 09:22:20;;;;;;;4.07;2.63;;;20.70;21.60;;;;;;5033730;28;20495;-61
2022/04/20 09:25:06;;;;;;;4.07;2.70;;;20.80;23.50;;;;;;5032945;28;20442;-63
2022/04/20 09:27:35;;;;;;;3.50;2.40;;;21.10;23.10;;;;;;5032023;28;20495;-62
2022/04/20 09:30:04;;;;;;;6.23;2.20;;;21.30;22.00;;;;;;5032718;28;20438;-62
2022/04/20 09:32:36;;;;;;;3.50;2.90;;;21.50;22.10;;;;;;5033385;28;20461;-62
2022/04/20 09:35:06;;;;;;;4.50;1.90;;;21.40;21.40;;;;;;5032783;28;20442;-62
2022/04/20 09:37:36;;;;;;;3.83;2.50;;;21.50;21.80;;;;;;5032876;28;20449;-63
2022/04/20 09:40:05;;;;;;;4.20;2.87;;;21.60;21.60;;;;;;5033008;28;20500;-62
2022/04/20 09:42:34;;;;;;;3.63;3.17;;;21.60;20.80;;;;;;5033457;28;20472;-61
2022/04/20 09:45:02;;;;;;;3.13;2.30;;;21.50;21.40;;;;;;5032108;28;20525;-62
2022/04/20 09:50:21;;;;;;;4.07;3.60;;;21.50;22.40;;;;;;5032358;28;20468;-62
2022/04/20 09:52:52;;;;;;;3.87;2.60;;;21.50;21.20;;;;;;5032573;28;20438;-62
2022/04/20 09:55:28;;;;;;;5.93;2.60;;;21.20;20.90;;;;;;5032634;28;20449;-62
2022/04/20 09:58:10;;;;;;;4.03;2.83;;;21.00;21.20;;;;;;5032428;28;20531;-62
2022/04/20 10:00:40;;;;;;;2.93;2.40;;;21.10;21.20;;;;;;5028713;28;20433;-62
2022/04/20 10:03:07;;;;;;;3.27;2.00;;;21.20;21.60;;;;;;5032714;28;20446;-62
2022/04/20 10:05:36;;;;;;;3.37;2.30;;;21.30;21.10;;;;;;5032398;28;20446;-62
2022/04/20 10:08:05;;;;;;;3.97;2.37;;;21.30;19.70;;;;;;5032487;28;20449;-62
2022/04/20 10:10:33;;;;;;;3.10;1.77;;;21.20;20.80;;;;;;5030542;28;20446;-62
2022/04/20 10:13:03;;;;;;;4.10;2.37;;;21.30;21.40;;;;;;5032497;28;20457;-62
2022/04/20 10:18:19;;;;;;;7.10;2.80;;;21.30;20.70;;;;;;5032735;28;20843;-62
2022/04/20 10:20:51;;;;;;;4.13;2.70;;;21.30;21.40;;;;;;5031967;28;20928;-63
2022/04/20 10:23:21;;;;;;;5.17;3.03;;;21.20;21.00;;;;;;5032292;28;20450;-62
2022/04/20 10:25:50;;;;;;;3.10;2.00;;;21.00;20.20;;;;;;5032065;28;20535;-62
2022/04/20 10:28:24;;;;;;;4.13;2.43;;;20.90;21.60;;;;;;5028642;28;20441;-61
2022/04/20 10:31:05;;;;;;;2.87;1.90;;;21.00;21.30;;;;;;5031065;28;20476;-62
2022/04/20 10:33:38;;;;;;;4.43;2.10;;;20.90;20.20;;;;;;5028708;28;20441;-61
2022/04/20 10:36:09;;;;;;;3.20;2.33;;;20.80;21.20;;;;;;5029665;28;20446;-61
2022/04/20 10:38:38;;;;;;;3.63;2.57;;;20.70;20.40;;;;;;5032132;28;20532;-62
2022/04/20 10:41:09;;;;;;;3.43;2.07;;;20.70;20.40;;;;;;5031752;28;20458;-61
2022/04/20 10:43:39;;;;;;;3.50;2.60;;;20.60;21.40;;;;;;5032311;28;20437;-62
2022/04/20 10:46:17;;;;;;;4.03;2.47;;;20.70;20.90;;;;;;5031498;28;20460;-62
2022/04/20 10:48:58;;;;;;;4.70;2.60;;;20.60;19.90;;;;;;5031526;28;20433;-64
2022/04/20 10:51:37;;;;;;;3.00;2.23;;;20.50;21.30;;;;;;5031867;28;20445;-63
2022/04/20 10:54:26;;;;;;;3.40;2.33;;;20.50;19.90;;;;;;5031028;28;20442;-63
2022/04/20 10:57:12;;;;;;;3.40;2.30;;;20.40;21.30;;;;;;5031577;28;20438;-63
2022/04/20 10:59:41;;;;;;;2.80;2.10;;;20.20;21.50;;;;;;5029641;28;20485;-61
2022/04/20 11:02:13;;;;;;;4.80;2.30;;;20.20;22.10;;;;;;5031479;28;20438;-65
2022/04/20 11:04:43;;;;;;;3.20;1.93;;;20.20;22.60;;;;;;5026209;28;20442;-64
2022/04/20 11:07:19;;;;;;;2.77;2.10;;;20.10;22.60;;;;;;5029653;28;20465;-62
2022/04/20 11:10:07;;;;;;;3.17;2.10;;;20.20;21.90;;;;;;5028309;28;20437;-62
2022/04/20 11:21:16;;;;;;;3.70;2.30;;;20.50;22.80;;;;;;5029362;28;20449;-64
2022/04/20 11:24:05;;;;;;;3.53;2.30;;;20.50;21.90;;;;;;5029530;28;20476;-63
2022/04/20 11:26:37;;;;;;;3.70;2.23;;;20.50;20.80;;;;;;5028231;28;20442;-62
2022/04/20 11:29:11;;;;;;;3.90;2.60;;;20.60;21.60;;;;;;5029062;28;20920;-62
2022/04/20 11:31:40;;;;;;;3.20;2.30;;;20.60;21.20;;;;;;5028909;28;20504;-62
2022/04/20 11:34:08;;;;;;;3.00;2.13;;;20.60;19.90;;;;;;5029713;28;20533;-62
2022/04/20 11:36:39;;;;;;;3.40;2.43;;;20.60;21.30;;;;;;5027355;28;20441;-62
2022/04/20 11:39:07;;;;;;;5.20;2.30;;;20.50;20.60;;;;;;5030081;28;20489;-62
2022/04/20 11:41:35;;;;;;;3.60;2.27;;;20.50;20.00;;;;;;5028768;28;20552;-62
2022/04/20 11:44:03;;;;;;;5.23;2.43;;;20.40;20.20;;;;;;5029681;28;20449;-62
2022/04/20 11:46:34;;;;;;;3.60;2.10;;;20.50;21.90;;;;;;5028494;28;20454;-62
2022/04/20 11:49:01;;;;;;;3.83;1.77;;;20.50;20.80;;;;;;5029725;28;20452;-65
2022/04/20 11:51:31;;;;;;;3.37;2.00;;;20.30;20.90;;;;;;5029587;28;20446;-63
2022/04/20 11:53:58;;;;;;;2.50;1.77;;;20.20;21.50;;;;;;5030262;28;20495;-64
2022/04/20 11:56:38;;;;;;;4.70;2.40;;;20.20;20.80;;;;;;5030394;28;20821;-63
2022/04/20 11:59:07;;;;;;;4.77;2.67;;;20.20;21.30;;;;;;5030785;28;20822;-65
2022/04/20 12:01:36;;;;;;;4.03;2.17;;;20.20;22.00;;;;;;5026471;28;20860;-63
2022/04/20 12:04:12;;;;;;;4.30;2.27;;;20.20;22.60;;;;;;5030732;28;20446;-62
2022/04/20 12:06:46;;;;;;;3.43;2.40;;;20.20;20.90;;;;;;5029833;28;20441;-63
2022/04/20 12:09:14;;;;;;;4.20;2.10;;;20.20;21.20;;;;;;5030142;28;20456;-67
2022/04/20 12:11:43;;;;;;;3.33;2.17;;;20.10;21.50;;;;;;5029289;28;20440;-63
2022/04/20 12:14:12;;;;;;;5.60;2.93;;;20.00;20.80;;;;;;5029871;28;20501;-63
2022/04/20 12:16:41;;;;;;;3.53;2.60;;;19.90;22.00;;;;;;5030833;28;20470;-62
2022/04/20 12:19:09;;;;;;;3.70;2.80;;;19.80;21.60;;;;;;5030045;28;20490;-63
2022/04/20 12:21:40;;;;;;;5.93;2.07;;;19.80;22.00;;;;;;5030006;28;20612;-64
2022/04/20 12:24:09;;;;;;;4.20;2.33;;;19.90;22.00;;;;;;5030081;28;20908;-63
2022/04/20 12:26:44;;;;;;;4.50;2.50;;;20.00;21.40;;;;;;5030133;28;21002;-62
2022/04/20 12:29:13;;;;;;;2.80;2.10;;;20.00;22.30;;;;;;5029712;28;20536;-63
2022/04/20 12:31:44;;;;;;;3.90;2.20;;;19.90;20.40;;;;;;5030502;28;20449;-64
2022/04/20 12:34:13;;;;;;;3.40;2.40;;;19.80;21.20;;;;;;5031571;28;20529;-63
2022/04/20 12:36:59;;;;;;;7.30;2.47;;;19.70;21.20;;;;;;5033267;28;20975;-63
2022/04/20 12:39:32;;;;;;;5.20;1.57;;;19.60;21.60;;;;;;5033817;28;20478;-62
2022/04/20 12:42:02;;;;;;;3.40;2.33;;;19.60;22.90;;;;;;5030227;28;20469;-63
2022/04/20 12:44:51;;;;;;;2.90;1.90;;;19.70;23.10;;;;;;5034016;28;20533;-63
2022/04/20 12:47:39;;;;;;;4.33;2.07;;;19.70;22.50;;;;;;5034415;28;20762;-63
2022/04/20 12:50:21;;;;;;;3.33;1.73;;;19.70;22.90;;;;;;5030714;28;20437;-63
2022/04/20 12:53:07;;;;;;;3.63;1.97;;;19.70;22.10;;;;;;5033621;28;20826;-64
2022/04/20 12:55:42;;;;;;;3.70;2.00;;;19.70;21.70;;;;;;5032634;28;20477;-62
2022/04/20 13:03:46;;;;;;;2.83;2.30;;;19.60;21.70;;;;;;5032741;28;20441;-65
2022/04/20 13:06:14;;;;;;;4.10;2.13;;;19.60;21.60;;;;;;5033536;28;20531;-63
2022/04/20 13:08:44;;;;;;;3.10;2.03;;;19.50;20.70;;;;;;5033645;28;20449;-63
2022/04/20 13:11:12;;;;;;;3.30;2.07;;;19.50;21.60;;;;;;5034031;28;20524;-63
2022/04/20 13:13:41;;;;;;;4.03;2.63;;;19.60;21.90;;;;;;5033198;28;20456;-63
2022/04/20 13:16:10;;;;;;;3.87;2.40;;;19.50;22.70;;;;;;5034078;28;21031;-62
2022/04/20 13:18:39;;;;;;;3.10;2.40;;;19.30;22.90;;;;;;5033508;28;20524;-63
2022/04/20 13:21:06;;;;;;;2.70;1.73;;;19.20;22.30;;;;;;5033505;28;20438;-63
2022/04/20 13:23:33;;;;;;;3.40;1.90;;;19.10;22.40;;;;;;5033167;28;20465;-63
2022/04/20 13:28:46;;;;;;;3.90;2.20;;;19.10;22.40;;;;;;5032916;28;20516;-63
2022/04/20 13:31:13;;;;;;;4.20;3.07;;;19.00;21.10;;;;;;5033063;28;20434;-63
2022/04/20 13:33:42;;;;;;;3.37;2.30;;;18.90;22.20;;;;;;5032900;28;20441;-62
2022/04/20 13:36:10;;;;;;;3.63;2.50;;;18.90;22.00;;;;;;5029455;28;20433;-62
2022/04/20 13:38:37;;;;;;;4.40;2.60;;;18.90;22.10;;;;;;5032533;28;20442;-63
2022/04/20 13:41:05;;;;;;;3.40;2.43;;;18.80;22.20;;;;;;5033395;28;20469;-62
2022/04/20 13:43:32;;;;;;;3.17;2.40;;;18.70;22.60;;;;;;5032832;28;20815;-64
2022/04/20 13:46:00;;;;;;;4.20;2.83;;;18.70;21.30;;;;;;5029768;28;20525;-62
2022/04/20 13:48:28;;;;;;;3.33;2.23;;;18.70;21.90;;;;;;5032256;28;20983;-63
2022/04/20 13:50:55;;;;;;;6.90;2.33;;;18.70;23.10;;;;;;5031146;28;20850;-63